Tottori current weather conditions

sailwx.info

Wind from 220 at 11 knots

Air temperature 5.0° C
Visibility: greater than 5.4 NM
Dewpoint -5.0° C

Last reported at 2014-Dec-21 12:00 UTC.
Time now 2014-Dec-21 20:52 UTC

Location: N 35°32' E 134°10'.
View on Google Maps.

See reports from other nearby stations

  
Tides and Currents Weather Stations Pressure Air Temp Water Temp Dewpoint Dewpoint Depression Visibility Wind Speed Wind Dir Waves Ship Positions
date/time (UTC)wind fromknots sea level pressurealtimeterstation pressurevisibilityair tempwater tempwave heightnotes
2014-Dec-21 12:00 220 11 5.4 5.0
2014-Dec-21 11:00 250 11 5.4 4.0 Light snow showers.
2014-Dec-21 10:00 240 12 5.4 4.0
2014-Dec-21 09:00 240 12 5.4 4.0
2014-Dec-21 08:00 270 10 5.4 4.0
2014-Dec-21 07:00 260 17 5.4 5.0
2014-Dec-21 06:00 240 12 5.4 7.0
2014-Dec-21 05:00 260 16 gusting 27 5.4 8.0
2014-Dec-21 04:00 260 10 5.4 8.0
2014-Dec-21 03:00 250 13 5.4 6.0
2014-Dec-21 02:00 240 10 5.4 6.0 Light rain showers.
2014-Dec-21 01:00 250 9 5.4 5.0 Light rain showers.
2014-Dec-21 00:00 250 13 5.4 6.0 Light rain showers.
2014-Dec-20 23:00 230 7 5.4 5.0 Light rain showers.
2014-Dec-20 22:00 220 7 5.4 6.0
2014-Dec-20 21:30 220 6 5.4 6.0
2014-Dec-20 21:10 220 6 5.4 6.0
2014-Dec-20 12:00 290 20 4.310.0
2014-Dec-20 11:00 290 20 gusting 31 4.310.0
2014-Dec-20 10:00 280 20 4.3 9.0
2014-Dec-20 09:00 250 14 2.7 8.0 Light rain showers. Mist.
2014-Dec-20 08:00 130 3 5.4 6.0 Light rain showers.
2014-Dec-20 07:00 120 4 5.4 7.0
2014-Dec-20 06:00 140 4 5.4 6.0
2014-Dec-20 05:00 150 8 5.4 6.0 Light rain showers.
2014-Dec-20 04:00 120 4 3.2 5.0 Light rain showers. Mist.
2014-Dec-20 03:32 130 8 2.7 4.0 Light rain showers. Mist.
2014-Dec-20 03:00 130 7 1.6 4.0 Light rain showers. Mist.
2014-Dec-20 02:00 160 3 1.6 4.0 Light rain. Mist.
2014-Dec-20 01:41 170 3 1.6 5.0 Light rain. Mist.
2014-Dec-20 01:38 170 3 1.1 4.0 Light rain. Mist.
2014-Dec-20 01:33 180 3 1.6 5.0 Light rain. Mist.
2014-Dec-20 01:30 190 3 2.2 5.0 Light rain. Mist.
2014-Dec-20 01:00 130 2 3.8 5.0 Light rain.
2014-Dec-20 00:00 120 3 4.3 4.0 Light rain.
2014-Dec-19 23:00 180 4 5.4 5.0 Light rain.
2014-Dec-19 22:00 100 5 5.4 6.0 Light rain.
2014-Dec-19 21:30 140 5 5.4 7.0 Light rain.
2014-Dec-19 21:10 150 7 5.4 6.0 Light rain.